Latest Weather Observations for Shark Bay Airport

IDW60801

Issued at 5:03 pm WST Saturday 30 July 2016 (issued every 30 minutes, with the page automatically refreshed every 10 minutes)

About weather observations | Map of weather stations | Latest weather observations for WA | Other Formats
Station Details ID: 006105 Name: SHARK BAY AIRPORT Lat: -25.89 Lon: 113.58 Height: 33.8 m
Data from the previous 72 hours. | See also: Recent months at Shark Bay Airport
Date/Time
WST
Temp
°C
App
Temp
°C
Dew
Point
°C
Rel
Hum
%
Delta-T
°C
Wind Press
QNH
hPa
Press
MSL
hPa
Rain since
9am
mm
Dir  Spd
km/h
Gust
km/h
Spd
kts
Gust
kts
30/05:00pm 22.0 20.1 14.1 61 4.6 SSW 17 20 9 11 1017.4 1017.4 0.0
30/04:30pm 22.6 20.6 13.9 58 5.1 SSW 17 24 9 13 1017.1 1017.1 0.0
30/04:00pm 23.0 21.1 14.3 58 5.1 SW 17 24 9 13 1017.1 1017.1 0.0
30/03:30pm 23.7 21.9 14.4 56 5.5 SW 17 22 9 12 1017.0 1017.0 0.0
30/03:00pm 23.8 21.4 13.9 54 5.8 SW 19 24 10 13 1016.9 1016.9 0.0
30/02:30pm 24.0 22.0 13.8 53 6.0 SSW 17 22 9 12 1017.0 1017.0 0.0
30/02:00pm 24.5 21.9 13.1 49 6.6 SW 19 22 10 12 1017.1 1017.1 0.0
30/01:30pm 24.8 22.1 13.0 47 6.8 SW 19 24 10 13 1017.1 1017.1 0.0
30/01:00pm 24.9 23.0 13.1 48 6.9 SW 15 24 8 13 1017.4 1017.4 0.0
30/12:30pm 24.8 22.9 14.3 52 6.2 S 17 24 9 13 1017.9 1017.9 0.0
30/12:00pm 23.8 22.4 14.5 56 5.5 S 15 22 8 12 1018.4 1018.4 0.0
30/11:30am 24.0 22.7 15.8 60 5.0 SSE 17 30 9 16 1018.7 1018.7 0.0
30/11:00am 23.5 22.8 15.5 60 4.8 SSE 13 20 7 11 1019.2 1019.2 0.0
30/10:30am 23.0 22.0 15.6 63 4.5 SSE 15 22 8 12 1019.4 1019.4 0.0
30/10:00am 22.4 21.2 16.2 68 3.7 ESE 17 22 9 12 1019.4 1019.4 0.0
30/09:30am 21.2 20.7 16.0 72 3.1 SE 13 20 7 11 1019.5 1019.5 0.0
30/09:00am 19.9 20.3 16.2 79 2.2 SE 9 13 5 7 1019.2 1019.2 0.0
30/08:30am 19.0 19.1 15.5 80 2.1 SE 9 15 5 8 1019.0 1019.0 0.0
30/08:00am 18.4 18.6 15.8 85 1.5 SE 9 13 5 7 1018.6 1018.6 0.0
30/07:30am 17.7 17.1 15.7 88 1.2 SSE 13 15 7 8 1018.4 1018.4 0.0
30/07:00am 17.3 17.3 15.1 87 1.3 SSE 9 11 5 6 1018.2 1018.2 0.0
30/06:30am 17.9 18.0 15.5 86 1.4 SSE 9 9 5 5 1017.7 1017.7 0.0
30/06:00am 18.7 18.7 16.3 86 1.4 SSE 11 15 6 8 1017.6 1017.6 0.0
30/05:30am 19.5 20.1 17.8 90 1.0 SSE 11 15 6 8 1017.5 1017.5 0.0
30/05:00am 19.7 20.5 18.2 91 0.9 SSW 11 13 6 7 1017.6 1017.6 0.0
30/04:30am 19.7 20.8 18.0 90 1.0 SW 9 17 5 9 1017.7 1017.7 0.0
30/04:00am 19.0 20.1 17.0 88 1.2 NNW 7 7 4 4 1017.5 1017.5 0.0
30/03:30am 19.4 20.6 17.4 88 1.2 WNW 7 9 4 5 1017.6 1017.6 0.0
30/03:00am 19.1 20.2 17.1 88 1.2 WNW 7 9 4 5 1017.6 1017.6 0.0
30/02:30am 18.8 19.4 16.8 88 1.2 NW 9 11 5 6 1018.0 1018.0 0.0
30/02:00am 18.3 19.3 16.3 88 1.2 WNW 6 7 3 4 1018.2 1018.2 0.0
30/01:30am 17.5 18.0 15.5 88 1.2 WNW 7 9 4 5 1018.3 1018.3 0.0
30/01:00am 16.8 16.6 14.6 87 1.3 NW 9 9 5 5 1018.3 1018.3 0.0
30/12:30am 17.2 16.4 15.2 88 1.2 NW 13 15 7 8 1018.5 1018.5 0.0
30/12:00am 17.2 16.8 15.2 88 1.2 NW 11 13 6 7 1018.9 1018.9 0.0
 
Date/Time
WST
Temp
°C
App
Temp
°C
Dew
Point
°C
Rel
Hum
%
Delta-T
°C
Wind Press
QNH
hPa
Press
MSL
hPa
Rain since
9am
mm
Dir  Spd
km/h
Gust
km/h
Spd
kts
Gust
kts
29/11:30pm 16.8 15.7 14.4 86 1.4 NW 13 15 7 8 1019.0 1019.0 0.0
29/11:00pm 16.5 16.4 13.4 82 1.7 WNW 6 7 3 4 1019.2 1019.2 0.0
29/10:30pm 17.4 16.4 14.5 83 1.7 NW 13 13 7 7 1019.1 1019.1 0.0
29/10:00pm 17.6 17.1 13.9 79 2.1 WNW 9 11 5 6 1019.0 1019.0 0.0
29/09:30pm 18.5 18.2 15.4 82 1.8 NW 11 11 6 6 1018.9 1018.9 0.0
29/09:00pm 18.2 18.5 15.1 82 1.8 WNW 7 9 4 5 1018.7 1018.7 0.0
29/08:30pm 18.0 17.7 14.5 80 2.0 W 9 9 5 5 1018.8 1018.8 0.0
29/08:00pm 18.1 18.1 14.2 78 2.2 WSW 7 9 4 5 1018.8 1018.8 0.0
29/07:30pm 18.5 18.6 14.4 77 2.4 WSW 7 9 4 5 1018.8 1018.8 0.0
29/07:00pm 19.1 18.6 15.0 77 2.4 WSW 11 13 6 7 1018.4 1018.4 0.0
29/06:30pm 20.1 20.1 15.3 74 2.8 WSW 9 9 5 5 1018.0 1018.0 0.0
29/06:00pm 21.7 21.6 16.0 70 3.4 WNW 11 15 6 8 1017.5 1017.5 0.0
29/05:30pm 22.9 21.9 15.7 64 4.3 W 15 19 8 10 1017.4 1017.4 0.0
29/05:00pm 24.3 22.4 15.2 57 5.5 WNW 19 24 10 13 1017.2 1017.2 0.0
29/04:30pm 25.4 22.8 13.9 49 6.8 WNW 20 26 11 14 1017.0 1017.0 0.0
29/04:00pm 26.9 23.5 12.5 40 8.4 WNW 22 32 12 17 1016.6 1016.6 0.0
29/03:30pm 26.8 22.8 10.5 36 9.2 NW 22 32 12 17 1016.8 1016.8 0.0
29/03:00pm 26.5 21.9 11.0 38 8.8 WNW 26 32 14 17 1017.0 1017.0 0.0
29/02:30pm 26.7 21.7 8.2 31 10.0 WNW 24 32 13 17 1017.0 1017.0 0.0
29/02:00pm 27.7 22.9 9.0 31 10.3 WNW 24 30 13 16 1016.6 1016.6 0.0
29/01:30pm 28.5 24.7 9.7 31 10.5 WNW 20 28 11 15 1016.7 1016.7 0.0
29/01:00pm 27.6 23.8 9.0 31 10.2 WNW 19 26 10 14 1016.9 1016.9 0.0
29/12:30pm 27.2 22.9 9.5 33 9.8 WNW 22 28 12 15 1017.5 1017.5 0.0
29/12:00pm 28.2 24.6 9.9 32 10.2 WNW 19 24 10 13 1017.7 1017.7 0.0
29/11:30am 27.1 24.5 9.5 33 9.7 WNW 13 19 7 10 1018.2 1018.2 0.0
29/11:00am 27.0 24.5 8.4 31 10.1 NW 11 20 6 11 1018.6 1018.6 0.0
29/10:30am 24.4 21.5 8.0 35 8.7 N 13 19 7 10 1018.5 1018.5 0.0
29/10:00am 23.1 21.5 8.8 40 7.6 NW 7 11 4 6 1019.1 1019.1 0.0
29/09:30am 21.4 19.5 9.0 45 6.6 NNW 9 13 5 7 1019.1 1019.1 0.0
29/09:00am 18.6 17.2 8.8 53 5.1 WNW 6 9 3 5 1018.7 1018.7 0.0
29/08:30am 18.2 16.8 9.0 55 4.8 NW 6 7 3 4 1018.4 1018.4 0.0
29/08:00am 16.5 15.0 9.0 61 3.9 N 7 7 4 4 1018.3 1018.3 0.0
29/07:30am 14.8 12.8 8.5 66 3.2 NNE 9 11 5 6 1017.9 1017.9 0.0
29/07:00am 14.2 12.7 9.0 71 2.6 NE 7 9 4 5 1017.8 1017.8 0.0
29/06:30am 13.8 11.9 9.0 73 2.4 NE 9 9 5 5 1017.5 1017.5 0.0
29/06:00am 13.6 11.3 9.1 74 2.3 NE 11 11 6 6 1017.4 1017.4 0.0
29/05:30am 13.6 11.3 9.1 74 2.3 ENE 11 11 6 6 1017.3 1017.3 0.0
29/05:00am 13.3 11.3 8.6 73 2.4 ENE 9 11 5 6 1017.3 1017.3 0.0
29/04:30am 12.9 10.4 8.0 72 2.4 ENE 11 11 6 6 1017.3 1017.3 0.0
29/04:00am 13.5 11.0 8.4 71 2.5 ENE 11 13 6 7 1017.3 1017.3 0.0
29/03:30am 14.1 12.2 9.1 72 2.5 ENE 9 11 5 6 1017.4 1017.4 0.0
29/03:00am 14.5 12.7 9.3 71 2.7 ENE 9 9 5 5 1017.5 1017.5 0.0
29/02:30am 14.9 13.5 9.5 70 2.8 E 7 9 4 5 1017.6 1017.6 0.0
29/02:00am 15.1 13.3 9.5 69 2.9 E 9 11 5 6 1017.8 1017.8 0.0
29/01:30am 15.9 14.5 9.6 66 3.3 ESE 7 9 4 5 1018.1 1018.1 0.0
29/01:00am 16.0 13.8 9.2 64 3.5 SE 11 11 6 6 1018.2 1018.2 0.0
29/12:30am 16.5 14.6 9.2 62 3.8 SE 9 13 5 7 1018.3 1018.3 0.0
29/12:00am 16.7 14.8 9.1 61 3.9 SE 9 9 5 5 1018.5 1018.5 0.0
 
Date/Time
WST
Temp
°C
App
Temp
°C
Dew
Point
°C
Rel
Hum
%
Delta-T
°C
Wind Press
QNH
hPa
Press
MSL
hPa
Rain since
9am
mm
Dir  Spd
km/h
Gust
km/h
Spd
kts
Gust
kts
28/11:30pm 17.1 15.4 8.3 56 4.5 SE 7 9 4 5 1018.5 1018.5 0.0
28/11:00pm 17.0 14.7 7.4 53 4.8 ESE 9 11 5 6 1018.5 1018.5 0.0
28/10:30pm 17.1 15.1 7.2 52 4.9 ESE 7 9 4 5 1018.9 1018.9 0.0
28/10:00pm 17.9 15.4 6.4 47 5.7 SSE 9 11 5 6 1019.1 1019.1 0.0
28/09:30pm 18.7 15.8 4.8 40 6.7 S 9 11 5 6 1019.2 1019.2 0.0
28/09:00pm 19.5 16.6 4.8 38 7.1 SSE 9 13 5 7 1019.3 1019.3 0.0
28/08:30pm 20.1 17.1 6.1 40 7.0 S 11 11 6 6 1019.4 1019.4 0.0
28/08:00pm 20.2 18.0 6.2 40 7.0 S 7 9 4 5 1019.3 1019.3 0.0
28/07:30pm 20.2 17.9 4.7 36 7.5 SSW 6 6 3 3 1019.2 1019.2 0.0
28/07:00pm 20.2 18.0 5.1 37 7.4 SSW 6 7 3 4 1019.1 1019.1 0.0
28/06:30pm 20.7 19.5 4.7 35 7.8 CALM 0 0 0 0 1019.1 1019.1 0.0
28/06:00pm 21.5 20.2 4.1 32 8.4 CALM 0 0 0 0 1018.7 1018.7 0.0
28/05:30pm 22.5 20.0 3.6 29 9.1 SW 6 7 3 4 1018.5 1018.5 0.0
28/05:00pm 23.3 20.3 2.2 25 10.0 SW 7 9 4 5 1018.6 1018.6 0.0
28/04:30pm 23.7 20.4 2.5 25 10.1 SW 9 11 5 6 1018.5 1018.5 0.0
28/04:00pm 23.5 20.0 3.4 27 9.7 SW 11 13 6 7 1018.4 1018.4 0.0
28/03:30pm 24.1 20.6 3.4 26 10.1 SW 11 13 6 7 1018.3 1018.3 0.0
28/03:00pm 24.6 21.3 4.4 27 10.0 SW 11 15 6 8 1018.2 1018.2 0.0
28/02:30pm 25.5 21.7 4.0 25 10.7 SW 13 15 7 8 1018.1 1018.1 0.0
28/02:00pm 26.0 22.3 4.5 25 10.8 SW 13 17 7 9 1018.2 1018.2 0.0
28/01:30pm 26.4 23.0 4.2 24 11.2 SW 11 17 6 9 1018.1 1018.1 0.0
28/01:00pm 25.0 21.6 5.7 29 9.8 SW 13 15 7 8 1018.6 1018.6 0.0
28/12:30pm 26.0 23.5 3.9 24 11.0 N 6 9 3 5 1019.1 1019.1 0.0
28/12:00pm 25.0 22.2 3.0 24 10.7 SE 7 13 4 7 1019.5 1019.5 0.0
28/11:30am 25.6 23.3 4.7 26 10.5 SE 6 13 3 7 1019.8 1019.8 0.0
28/11:00am 24.0 21.3 3.9 27 9.9 ESE 7 11 4 6 1019.9 1019.9 0.0
28/10:30am 23.1 19.8 4.6 30 9.2 SE 11 15 6 8 1020.4 1020.4 0.0
28/10:00am 22.7 19.6 5.6 33 8.6 ESE 11 15 6 8 1020.5 1020.5 0.0
28/09:30am 20.5 17.5 6.1 39 7.2 ESE 11 15 6 8 1020.3 1020.3 0.0
28/09:00am 19.7 17.5 7.8 46 6.1 ESE 9 13 5 7 1020.1 1020.1 0.0
28/08:30am 17.3 15.7 8.2 55 4.6 SE 6 7 3 4 1020.1 1020.1 0.0
28/08:00am 16.0 14.3 8.5 61 3.8 SSE 7 9 4 5 1020.0 1020.0 0.0
28/07:30am 15.5 13.8 8.3 62 3.6 SSE 7 9 4 5 1019.6 1019.6 0.0
28/07:00am 15.0 13.0 8.5 65 3.3 ESE 9 9 5 5 1019.3 1019.3 0.0
28/06:30am 15.1 13.0 8.1 63 3.5 E 9 11 5 6 1019.0 1019.0 0.0
28/06:00am 15.4 13.0 7.2 58 4.0 E 9 11 5 6 1019.0 1019.0 0.0
28/05:30am 15.8 13.2 6.3 53 4.6 ESE 9 11 5 6 1019.1 1019.1 0.0
28/05:00am 15.8 13.2 6.0 52 4.7 ESE 9 11 5 6 1019.1 1019.1 0.0
28/04:30am 16.1 13.4 5.4 49 5.1 ESE 9 11 5 6 1019.0 1019.0 0.0
28/04:00am 16.0 13.3 5.6 50 5.0 E 9 11 5 6 1019.1 1019.1 0.0
28/03:30am 16.0 12.9 5.6 50 5.0 SSE 11 13 6 7 1019.3 1019.3 0.0
28/03:00am 16.3 13.1 5.0 47 5.4 SSE 11 13 6 7 1019.8 1019.8 0.0
28/02:30am 16.6 13.4 5.3 47 5.4 SSE 11 13 6 7 1019.8 1019.8 0.0
28/02:00am 16.7 13.4 4.4 44 5.8 SSE 11 13 6 7 1019.8 1019.8 0.0
28/01:30am 16.7 13.5 3.1 40 6.2 SSE 9 11 5 6 1020.0 1020.0 0.0
28/01:00am 17.3 13.9 1.7 35 7.0 SSE 9 11 5 6 1020.1 1020.1 0.0
28/12:30am 17.6 13.8 1.6 34 7.2 SSE 11 11 6 6 1020.1 1020.1 0.0
28/12:00am 17.0 14.0 1.8 36 6.8 SE 7 7 4 4 1019.9 1019.9 0.0
 
Date/Time
WST
Temp
°C
App
Temp
°C
Dew
Point
°C
Rel
Hum
%
Delta-T
°C
Wind Press
QNH
hPa
Press
MSL
hPa
Rain since
9am
mm
Dir  Spd
km/h
Gust
km/h
Spd
kts
Gust
kts
27/11:30pm 17.2 14.3 2.4 37 6.7 E 7 9 4 5 1020.0 1020.0 0.0
27/11:00pm 16.7 13.9 3.4 41 6.1 ESE 7 9 4 5 1020.4 1020.4 0.0
27/10:30pm 17.3 13.9 1.7 35 7.0 SE 9 11 5 6 1020.7 1020.7 0.0
27/10:00pm 17.9 14.0 1.4 33 7.3 SSE 11 13 6 7 1020.9 1020.9 0.0
27/09:30pm 17.4 13.9 1.4 34 7.1 SE 9 11 5 6 1020.8 1020.8 0.0
27/09:00pm 17.5 13.7 1.5 34 7.1 SE 11 11 6 6 1020.6 1020.6 0.0
27/08:30pm 17.3 13.9 2.1 36 6.9 SE 9 9 5 5 1020.6 1020.6 0.0
27/08:00pm 17.3 13.3 2.9 38 6.6 SSE 13 13 7 7 1020.6 1020.6 0.0
27/07:30pm 17.5 13.9 2.7 37 6.8 SSE 11 13 6 7 1020.2 1020.2 0.0
27/07:00pm 17.9 15.0 2.6 36 7.0 SE 7 9 4 5 1019.8 1019.8 0.0
27/06:30pm 18.8 15.5 2.6 34 7.5 SE 9 11 5 6 1019.9 1019.9 0.0
27/06:00pm 19.9 16.2 2.3 31 8.1 S 11 11 6 6 1020.0 1020.0 0.0
27/05:30pm 20.9 17.6 2.2 29 8.7 ESE 9 9 5 5 1019.5 1019.5 0.0

Other Formats:

Comma delimited format used in spreadsheet applications
http://www.bom.gov.au/fwo/IDW60801/IDW60801.95402.axf

JavaScript Object Notation format (JSON) in row-major order
http://www.bom.gov.au/fwo/IDW60801/IDW60801.95402.json